PWSweather.com
Personal Weather Stations
Station Observations
KILMORRI1
Goose Lake, Morris, IL 60450

Goose LakeMorris, IL 60450

Lat: 41.34, Lon: -88.3

Elevation: 523

Station Type:

www.gooselakeweather.com

High Low Average
Temperature 40.5°F4.7°C 3.8°F-15.7°C 30.0°F-1.1°C
Dew Point 36.9°F2.7°C 0.0°F-17.8°C 26.6°F-3.0°C
Winds 8.1 mph 13.0 kmh Calm Calm 4.0 mph S6.4 kmh S
Wind Gusts 16.1 mph25.9 kmh -- 7.0 mph11.3 kmh
Humidity 93% 82% 87%
Pressure 30.29 in1025.7 mb 29.93 in1013.5 mb -
Precipitation 0.04 in1.0 mm - -
Hour Temp Dew Point Humidity Winds Wind Gusts Pressure Precip Precip Rate Daily Precip Total
12:00 AM 4.7°F-15.2°C 1.2°F-17.1°C 85% 1.2 mph SE1.9 kmh SE 1.2 mph1.9 kmh 30.29 in1025.7 mb - 0.00 in0.0 mm 0.00 in0.0 mm
12:10 AM 4.8°F-15.1°C 1.0°F-17.2°C 84% Calm Calm 1.2 mph1.9 kmh 30.29 in1025.7 mb - 0.00 in0.0 mm 0.00 in0.0 mm
12:20 AM 4.1°F-15.5°C 0.6°F-17.4°C 85% Calm Calm 1.2 mph1.9 kmh 30.28 in1025.4 mb - 0.00 in0.0 mm 0.00 in0.0 mm
12:30 AM 3.8°F-15.7°C 0.0°F-17.8°C 84% Calm Calm 1.2 mph1.9 kmh 30.27 in1025.1 mb - 0.00 in0.0 mm 0.00 in0.0 mm
12:40 AM 5.0°F-15.0°C 1.5°F-16.9°C 85% Calm Calm 1.2 mph1.9 kmh 30.26 in1024.7 mb - 0.00 in0.0 mm 0.00 in0.0 mm
12:50 AM 5.5°F-14.7°C 2.0°F-16.7°C 85% Calm Calm 1.2 mph1.9 kmh 30.26 in1024.7 mb - 0.00 in0.0 mm 0.00 in0.0 mm
01:00 AM 5.3°F-14.8°C 1.8°F-16.8°C 85% Calm Calm 1.2 mph1.9 kmh 30.26 in1024.7 mb - 0.00 in0.0 mm 0.00 in0.0 mm
01:10 AM 4.7°F-15.2°C 1.2°F-17.1°C 85% Calm Calm 1.2 mph1.9 kmh 30.25 in1024.4 mb - 0.00 in0.0 mm 0.00 in0.0 mm
01:20 AM 4.9°F-15.1°C 1.1°F-17.2°C 84% Calm Calm 1.2 mph1.9 kmh 30.25 in1024.4 mb - 0.00 in0.0 mm 0.00 in0.0 mm
01:30 AM 5.9°F-14.5°C 2.4°F-16.4°C 85% Calm Calm -- 30.25 in1024.4 mb - 0.00 in0.0 mm 0.00 in0.0 mm
01:40 AM 6.0°F-14.4°C 2.5°F-16.4°C 85% Calm Calm 1.2 mph1.9 kmh 30.24 in1024.0 mb - 0.00 in0.0 mm 0.00 in0.0 mm
01:50 AM 6.5°F-14.2°C 2.9°F-16.2°C 85% Calm Calm -- 30.25 in1024.4 mb - 0.00 in0.0 mm 0.00 in0.0 mm
02:00 AM 6.2°F-14.3°C 2.7°F-16.3°C 85% Calm Calm 1.2 mph1.9 kmh 30.24 in1024.0 mb - 0.00 in0.0 mm 0.00 in0.0 mm
02:10 AM 10.7°F-11.8°C 7.8°F-13.4°C 88% 3.5 mph S5.6 kmh S 4.6 mph7.4 kmh 30.24 in1024.0 mb - 0.00 in0.0 mm 0.00 in0.0 mm
02:20 AM 14.4°F-9.8°C 11.3°F-11.5°C 87% 2.3 mph S3.7 kmh S 3.5 mph5.6 kmh 30.24 in1024.0 mb - 0.00 in0.0 mm 0.00 in0.0 mm
02:30 AM 14.0°F-10.0°C 10.8°F-11.8°C 87% Calm Calm 2.3 mph3.7 kmh 30.24 in1024.0 mb - 0.00 in0.0 mm 0.00 in0.0 mm
02:40 AM 13.9°F-10.1°C 10.8°F-11.8°C 87% 2.3 mph SSE3.7 kmh SSE 3.5 mph5.6 kmh 30.23 in1023.7 mb - 0.00 in0.0 mm 0.00 in0.0 mm
02:50 AM 12.8°F-10.7°C 9.4°F-12.6°C 86% 1.2 mph S1.9 kmh S 2.3 mph3.7 kmh 30.23 in1023.7 mb - 0.00 in0.0 mm 0.00 in0.0 mm
03:00 AM 11.0°F-11.7°C 7.6°F-13.6°C 86% Calm Calm 1.2 mph1.9 kmh 30.22 in1023.4 mb - 0.00 in0.0 mm 0.00 in0.0 mm
03:10 AM 11.1°F-11.6°C 8.0°F-13.3°C 87% 1.2 mph SSE1.9 kmh SSE 2.3 mph3.7 kmh 30.22 in1023.4 mb - 0.00 in0.0 mm 0.00 in0.0 mm
03:20 AM 12.7°F-10.7°C 9.6°F-12.4°C 87% 1.2 mph SSE1.9 kmh SSE 1.2 mph1.9 kmh 30.21 in1023.0 mb - 0.00 in0.0 mm 0.00 in0.0 mm
03:30 AM 14.7°F-9.6°C 11.8°F-11.2°C 88% 1.2 mph S1.9 kmh S 3.5 mph5.6 kmh 30.21 in1023.0 mb - 0.00 in0.0 mm 0.00 in0.0 mm
03:40 AM 15.8°F-9.0°C 12.9°F-10.6°C 88% 2.3 mph S3.7 kmh S 3.5 mph5.6 kmh 30.20 in1022.7 mb - 0.00 in0.0 mm 0.00 in0.0 mm
03:50 AM 16.1°F-8.8°C 13.2°F-10.4°C 88% 3.5 mph S5.6 kmh S 5.8 mph9.3 kmh 30.19 in1022.4 mb - 0.00 in0.0 mm 0.00 in0.0 mm
04:00 AM 16.4°F-8.7°C 13.5°F-10.3°C 88% 3.5 mph SSE5.6 kmh SSE 5.8 mph9.3 kmh 30.18 in1022.0 mb - 0.00 in0.0 mm 0.00 in0.0 mm
04:10 AM 17.0°F-8.3°C 14.1°F-9.9°C 88% 3.5 mph S5.6 kmh S 6.9 mph11.1 kmh 30.18 in1022.0 mb - 0.00 in0.0 mm 0.00 in0.0 mm
04:20 AM 17.4°F-8.1°C 14.4°F-9.8°C 88% 2.3 mph SSE3.7 kmh SSE 3.5 mph5.6 kmh 30.18 in1022.0 mb - 0.00 in0.0 mm 0.00 in0.0 mm
04:30 AM 18.1°F-7.7°C 15.1°F-9.4°C 88% 3.5 mph S5.6 kmh S 3.5 mph5.6 kmh 30.18 in1022.0 mb - 0.00 in0.0 mm 0.00 in0.0 mm
04:40 AM 19.1°F-7.2°C 16.1°F-8.8°C 88% 3.5 mph S5.6 kmh S 5.8 mph9.3 kmh 30.18 in1022.0 mb - 0.00 in0.0 mm 0.00 in0.0 mm
04:50 AM 19.7°F-6.8°C 16.7°F-8.5°C 88% 4.6 mph S7.4 kmh S 6.9 mph11.1 kmh 30.17 in1021.7 mb - 0.00 in0.0 mm 0.00 in0.0 mm
05:00 AM 20.2°F-6.6°C 17.0°F-8.3°C 87% 3.5 mph S5.6 kmh S 6.9 mph11.1 kmh 30.16 in1021.3 mb - 0.00 in0.0 mm 0.00 in0.0 mm
05:10 AM 20.7°F-6.3°C 17.5°F-8.1°C 87% 6.9 mph S11.1 kmh S 11.5 mph18.5 kmh 30.16 in1021.3 mb - 0.00 in0.0 mm 0.00 in0.0 mm
05:20 AM 21.2°F-6.0°C 17.9°F-7.8°C 87% 5.8 mph S9.3 kmh S 8.1 mph13.0 kmh 30.16 in1021.3 mb - 0.00 in0.0 mm 0.00 in0.0 mm
05:30 AM 21.6°F-5.8°C 18.3°F-7.6°C 87% 4.6 mph S7.4 kmh S 9.2 mph14.8 kmh 30.16 in1021.3 mb - 0.00 in0.0 mm 0.00 in0.0 mm
05:40 AM 22.0°F-5.6°C 18.7°F-7.4°C 87% 5.8 mph S9.3 kmh S 10.4 mph16.7 kmh 30.15 in1021.0 mb - 0.00 in0.0 mm 0.00 in0.0 mm
05:50 AM 22.2°F-5.4°C 18.9°F-7.3°C 87% 6.9 mph S11.1 kmh S 10.4 mph16.7 kmh 30.15 in1021.0 mb - 0.00 in0.0 mm 0.00 in0.0 mm
06:00 AM 22.7°F-5.2°C 19.4°F-7.0°C 87% 5.8 mph S9.3 kmh S 9.2 mph14.8 kmh 30.15 in1021.0 mb - 0.00 in0.0 mm 0.00 in0.0 mm
06:10 AM 23.2°F-4.9°C 19.9°F-6.7°C 87% 4.6 mph S7.4 kmh S 5.8 mph9.3 kmh 30.15 in1021.0 mb - 0.00 in0.0 mm 0.00 in0.0 mm
06:20 AM 23.5°F-4.7°C 20.2°F-6.6°C 87% 5.8 mph S9.3 kmh S 9.2 mph14.8 kmh 30.15 in1021.0 mb - 0.00 in0.0 mm 0.00 in0.0 mm
06:30 AM 23.9°F-4.5°C 20.6°F-6.3°C 87% 4.6 mph SSW7.4 kmh SSW 6.9 mph11.1 kmh 30.15 in1021.0 mb - 0.00 in0.0 mm 0.00 in0.0 mm
06:40 AM 24.2°F-4.3°C 21.1°F-6.1°C 88% 3.5 mph SSW5.6 kmh SSW 5.8 mph9.3 kmh 30.15 in1021.0 mb - 0.00 in0.0 mm 0.00 in0.0 mm
06:50 AM 24.4°F-4.2°C 21.4°F-5.9°C 88% 4.6 mph S7.4 kmh S 8.1 mph13.0 kmh 30.15 in1021.0 mb - 0.00 in0.0 mm 0.00 in0.0 mm
07:00 AM 24.5°F-4.2°C 21.5°F-5.8°C 88% 3.5 mph S5.6 kmh S 5.8 mph9.3 kmh 30.15 in1021.0 mb - 0.00 in0.0 mm 0.00 in0.0 mm
07:10 AM 24.9°F-3.9°C 21.9°F-5.6°C 88% 3.5 mph S5.6 kmh S 3.5 mph5.6 kmh 30.15 in1021.0 mb - 0.00 in0.0 mm 0.00 in0.0 mm
07:20 AM 25.3°F-3.7°C 22.2°F-5.4°C 88% 3.5 mph S5.6 kmh S 5.8 mph9.3 kmh 30.15 in1021.0 mb - 0.00 in0.0 mm 0.00 in0.0 mm
07:30 AM 25.7°F-3.5°C 22.6°F-5.2°C 88% 3.5 mph SSW5.6 kmh SSW 3.5 mph5.6 kmh 30.16 in1021.3 mb - 0.00 in0.0 mm 0.00 in0.0 mm
07:40 AM 26.2°F-3.2°C 23.4°F-4.8°C 89% 3.5 mph S5.6 kmh S 4.6 mph7.4 kmh 30.15 in1021.0 mb - 0.00 in0.0 mm 0.00 in0.0 mm
07:50 AM 26.6°F-3.0°C 23.5°F-4.7°C 88% 3.5 mph S5.6 kmh S 4.6 mph7.4 kmh 30.15 in1021.0 mb - 0.00 in0.0 mm 0.00 in0.0 mm
08:00 AM 27.2°F-2.7°C 24.1°F-4.4°C 88% 4.6 mph S7.4 kmh S 6.9 mph11.1 kmh 30.15 in1021.0 mb - 0.00 in0.0 mm 0.00 in0.0 mm
08:10 AM 27.9°F-2.3°C 24.8°F-4.0°C 88% 3.5 mph S5.6 kmh S 8.1 mph13.0 kmh 30.15 in1021.0 mb - 0.00 in0.0 mm 0.00 in0.0 mm
08:20 AM 28.6°F-1.9°C 25.5°F-3.6°C 88% 4.6 mph S7.4 kmh S 3.5 mph5.6 kmh 30.15 in1021.0 mb - 0.00 in0.0 mm 0.00 in0.0 mm
08:30 AM 29.1°F-1.6°C 26.0°F-3.3°C 88% 3.5 mph S5.6 kmh S 6.9 mph11.1 kmh 30.15 in1021.0 mb - 0.00 in0.0 mm 0.00 in0.0 mm
08:40 AM 29.6°F-1.3°C 26.3°F-3.2°C 87% 4.6 mph SSW7.4 kmh SSW 6.9 mph11.1 kmh 30.14 in1020.7 mb - 0.00 in0.0 mm 0.00 in0.0 mm
08:50 AM 30.3°F-0.9°C 26.9°F-2.8°C 87% 5.8 mph S9.3 kmh S 6.9 mph11.1 kmh 30.15 in1021.0 mb - 0.00 in0.0 mm 0.00 in0.0 mm
09:00 AM 30.9°F-0.6°C 27.2°F-2.7°C 86% 6.9 mph S11.1 kmh S 11.5 mph18.5 kmh 30.14 in1020.7 mb - 0.00 in0.0 mm 0.00 in0.0 mm
09:10 AM 31.6°F-0.2°C 27.8°F-2.3°C 86% 4.6 mph SSW7.4 kmh SSW 5.8 mph9.3 kmh 30.14 in1020.7 mb - 0.00 in0.0 mm 0.00 in0.0 mm
09:20 AM 32.6°F0.3°C 28.6°F-1.9°C 85% 8.1 mph SSW13.0 kmh SSW 11.5 mph18.5 kmh 30.14 in1020.7 mb - 0.00 in0.0 mm 0.00 in0.0 mm
09:30 AM 33.1°F0.6°C 29.1°F-1.6°C 85% 5.8 mph SSW9.3 kmh SSW 8.1 mph13.0 kmh 30.14 in1020.7 mb - 0.00 in0.0 mm 0.00 in0.0 mm
09:40 AM 33.4°F0.8°C 29.4°F-1.4°C 85% 4.6 mph S7.4 kmh S 8.1 mph13.0 kmh 30.14 in1020.7 mb - 0.00 in0.0 mm 0.00 in0.0 mm
09:50 AM 33.6°F0.9°C 29.5°F-1.4°C 85% 5.8 mph SSW9.3 kmh SSW 9.2 mph14.8 kmh 30.14 in1020.7 mb - 0.00 in0.0 mm 0.00 in0.0 mm
10:00 AM 34.1°F1.2°C 30.1°F-1.1°C 85% 5.8 mph S9.3 kmh S 9.2 mph14.8 kmh 30.14 in1020.7 mb - 0.00 in0.0 mm 0.00 in0.0 mm
10:10 AM 34.8°F1.6°C 30.8°F-0.7°C 85% 5.8 mph SSW9.3 kmh SSW 10.4 mph16.7 kmh 30.14 in1020.7 mb - 0.00 in0.0 mm 0.00 in0.0 mm
10:20 AM 35.9°F2.2°C 31.8°F-0.1°C 85% 5.8 mph SSW9.3 kmh SSW 10.4 mph16.7 kmh 30.13 in1020.3 mb - 0.00 in0.0 mm 0.00 in0.0 mm
10:30 AM 36.6°F2.6°C 32.2°F0.1°C 84% 5.8 mph S9.3 kmh S 9.2 mph14.8 kmh 30.13 in1020.3 mb - 0.00 in0.0 mm 0.00 in0.0 mm
10:40 AM 37.1°F2.8°C 32.7°F0.4°C 84% 6.9 mph SSW11.1 kmh SSW 10.4 mph16.7 kmh 30.13 in1020.3 mb - 0.00 in0.0 mm 0.00 in0.0 mm
10:50 AM 37.2°F2.9°C 32.8°F0.4°C 84% 8.1 mph S13.0 kmh S 11.5 mph18.5 kmh 30.12 in1020.0 mb - 0.01 in0.3 mm 0.01 in0.3 mm
11:00 AM 37.4°F3.0°C 33.0°F0.6°C 84% 6.9 mph S11.1 kmh S 11.5 mph18.5 kmh 30.12 in1020.0 mb - 0.00 in0.0 mm 0.01 in0.3 mm
11:10 AM 37.8°F3.2°C 33.4°F0.8°C 84% 5.8 mph SSW9.3 kmh SSW 8.1 mph13.0 kmh 30.12 in1020.0 mb - 0.01 in0.3 mm 0.02 in0.5 mm
11:20 AM 38.3°F3.5°C 33.6°F0.9°C 83% 4.6 mph SW7.4 kmh SW 5.8 mph9.3 kmh 30.12 in1020.0 mb - 0.00 in0.0 mm 0.02 in0.5 mm
11:30 AM 38.5°F3.6°C 33.8°F1.0°C 83% 5.8 mph SW9.3 kmh SW 8.1 mph13.0 kmh 30.11 in1019.6 mb - 0.00 in0.0 mm 0.02 in0.5 mm
11:40 AM 39.1°F3.9°C 34.0°F1.1°C 82% 3.5 mph SSW5.6 kmh SSW 4.6 mph7.4 kmh 30.11 in1019.6 mb - 0.01 in0.3 mm 0.03 in0.8 mm
11:50 AM 39.2°F4.0°C 34.2°F1.2°C 82% 4.6 mph SSW7.4 kmh SSW 5.8 mph9.3 kmh 30.10 in1019.3 mb - 0.00 in0.0 mm 0.03 in0.8 mm
12:00 PM 39.1°F3.9°C 34.1°F1.2°C 82% 4.6 mph SSW7.4 kmh SSW 6.9 mph11.1 kmh 30.09 in1019.0 mb - 0.00 in0.0 mm 0.03 in0.8 mm
12:10 PM 39.6°F4.2°C 34.5°F1.4°C 82% 5.8 mph SSW9.3 kmh SSW 9.2 mph14.8 kmh 30.08 in1018.6 mb - 0.01 in0.3 mm 0.04 in1.0 mm
12:20 PM 39.8°F4.3°C 34.8°F1.6°C 82% 6.9 mph SW11.1 kmh SW 10.4 mph16.7 kmh 30.07 in1018.3 mb - 0.00 in0.0 mm 0.04 in1.0 mm
12:30 PM 39.7°F4.3°C 34.7°F1.5°C 82% 5.8 mph SW9.3 kmh SW 11.5 mph18.5 kmh 30.07 in1018.3 mb - 0.00 in0.0 mm 0.04 in1.0 mm
12:40 PM 39.8°F4.3°C 35.1°F1.7°C 83% 4.6 mph SSW7.4 kmh SSW 6.9 mph11.1 kmh 30.07 in1018.3 mb - 0.00 in0.0 mm 0.04 in1.0 mm
12:50 PM 40.0°F4.4°C 35.3°F1.8°C 83% 5.8 mph SSW9.3 kmh SSW 9.2 mph14.8 kmh 30.06 in1017.9 mb - 0.00 in0.0 mm 0.04 in1.0 mm
01:00 PM 40.0°F4.4°C 35.3°F1.8°C 83% 2.3 mph S3.7 kmh S 4.6 mph7.4 kmh 30.05 in1017.6 mb - 0.00 in0.0 mm 0.04 in1.0 mm
01:10 PM 39.8°F4.3°C 35.1°F1.7°C 83% 6.9 mph S11.1 kmh S 9.2 mph14.8 kmh 30.05 in1017.6 mb - 0.00 in0.0 mm 0.04 in1.0 mm
01:20 PM 39.5°F4.2°C 34.8°F1.6°C 83% 5.8 mph S9.3 kmh S 10.4 mph16.7 kmh 30.05 in1017.6 mb - 0.00 in0.0 mm 0.04 in1.0 mm
01:30 PM 39.3°F4.1°C 34.9°F1.6°C 84% 6.9 mph S11.1 kmh S 9.2 mph14.8 kmh 30.04 in1017.3 mb - 0.00 in0.0 mm 0.04 in1.0 mm
01:40 PM 39.6°F4.2°C 35.1°F1.7°C 84% 5.8 mph SSW9.3 kmh SSW 11.5 mph18.5 kmh 30.04 in1017.3 mb - 0.00 in0.0 mm 0.04 in1.0 mm
01:50 PM 39.3°F4.1°C 34.9°F1.6°C 84% 5.8 mph S9.3 kmh S 10.4 mph16.7 kmh 30.03 in1016.9 mb - 0.00 in0.0 mm 0.04 in1.0 mm
02:00 PM 39.5°F4.2°C 35.1°F1.7°C 84% 4.6 mph S7.4 kmh S 6.9 mph11.1 kmh 30.03 in1016.9 mb - 0.00 in0.0 mm 0.04 in1.0 mm
02:10 PM 39.6°F4.2°C 35.2°F1.8°C 84% 5.8 mph SSW9.3 kmh SSW 8.1 mph13.0 kmh 30.03 in1016.9 mb - 0.00 in0.0 mm 0.04 in1.0 mm
02:20 PM 39.5°F4.2°C 35.1°F1.7°C 84% 4.6 mph S7.4 kmh S 8.1 mph13.0 kmh 30.02 in1016.6 mb - 0.00 in0.0 mm 0.04 in1.0 mm
02:30 PM 39.6°F4.2°C 35.1°F1.7°C 84% 6.9 mph S11.1 kmh S 10.4 mph16.7 kmh 30.02 in1016.6 mb - 0.00 in0.0 mm 0.04 in1.0 mm
02:40 PM 40.2°F4.6°C 35.4°F1.9°C 83% 6.9 mph S11.1 kmh S 9.2 mph14.8 kmh 30.02 in1016.6 mb - 0.00 in0.0 mm 0.04 in1.0 mm
02:50 PM 40.3°F4.6°C 35.5°F1.9°C 83% 6.9 mph SSW11.1 kmh SSW 11.5 mph18.5 kmh 30.02 in1016.6 mb - 0.00 in0.0 mm 0.04 in1.0 mm
03:00 PM 40.2°F4.6°C 35.5°F1.9°C 83% 4.6 mph S7.4 kmh S 3.5 mph5.6 kmh 30.02 in1016.6 mb - 0.00 in0.0 mm 0.04 in1.0 mm
03:10 PM 40.3°F4.6°C 35.5°F1.9°C 83% 6.9 mph SSW11.1 kmh SSW 12.7 mph20.4 kmh 30.01 in1016.3 mb - 0.00 in0.0 mm 0.04 in1.0 mm
03:20 PM 40.5°F4.7°C 35.7°F2.1°C 83% 6.9 mph S11.1 kmh S 10.4 mph16.7 kmh 30.01 in1016.3 mb - 0.00 in0.0 mm 0.04 in1.0 mm
03:30 PM 40.5°F4.7°C 35.7°F2.1°C 83% 5.8 mph S9.3 kmh S 5.8 mph9.3 kmh 30.00 in1015.9 mb - 0.00 in0.0 mm 0.04 in1.0 mm
03:40 PM 40.2°F4.6°C 35.5°F1.9°C 83% 8.1 mph S13.0 kmh S 11.5 mph18.5 kmh 30.00 in1015.9 mb - 0.00 in0.0 mm 0.04 in1.0 mm
03:50 PM 40.0°F4.4°C 35.6°F2.0°C 84% 5.8 mph SSE9.3 kmh SSE 5.8 mph9.3 kmh 30.00 in1015.9 mb - 0.00 in0.0 mm 0.04 in1.0 mm
04:00 PM 39.9°F4.4°C 35.4°F1.9°C 84% 5.8 mph S9.3 kmh S 10.4 mph16.7 kmh 29.99 in1015.6 mb - 0.00 in0.0 mm 0.04 in1.0 mm
04:10 PM 39.6°F4.2°C 35.4°F1.9°C 85% 3.5 mph S5.6 kmh S 8.1 mph13.0 kmh 29.99 in1015.6 mb - 0.00 in0.0 mm 0.04 in1.0 mm
04:20 PM 39.3°F4.1°C 35.2°F1.8°C 85% 2.3 mph S3.7 kmh S 6.9 mph11.1 kmh 29.99 in1015.6 mb - 0.00 in0.0 mm 0.04 in1.0 mm
04:30 PM 39.1°F3.9°C 35.3°F1.8°C 86% 3.5 mph S5.6 kmh S 6.9 mph11.1 kmh 29.98 in1015.2 mb - 0.00 in0.0 mm 0.04 in1.0 mm
04:40 PM 38.9°F3.8°C 35.1°F1.7°C 86% 4.6 mph S7.4 kmh S 10.4 mph16.7 kmh 29.98 in1015.2 mb - 0.00 in0.0 mm 0.04 in1.0 mm
04:50 PM 38.5°F3.6°C 35.0°F1.7°C 87% 4.6 mph S7.4 kmh S 6.9 mph11.1 kmh 29.98 in1015.2 mb - 0.00 in0.0 mm 0.04 in1.0 mm
05:00 PM 38.3°F3.5°C 34.8°F1.6°C 87% 4.6 mph S7.4 kmh S 8.1 mph13.0 kmh 29.98 in1015.2 mb - 0.00 in0.0 mm 0.04 in1.0 mm
05:10 PM 38.3°F3.5°C 35.1°F1.7°C 88% 4.6 mph SSE7.4 kmh SSE 5.8 mph9.3 kmh 29.98 in1015.2 mb - 0.00 in0.0 mm 0.04 in1.0 mm
05:20 PM 38.3°F3.5°C 35.1°F1.7°C 88% 4.6 mph S7.4 kmh S 8.1 mph13.0 kmh 29.98 in1015.2 mb - 0.00 in0.0 mm 0.04 in1.0 mm
05:30 PM 38.2°F3.4°C 35.2°F1.8°C 89% 4.6 mph S7.4 kmh S 10.4 mph16.7 kmh 29.98 in1015.2 mb - 0.00 in0.0 mm 0.04 in1.0 mm
05:40 PM 38.2°F3.4°C 35.2°F1.8°C 89% 4.6 mph S7.4 kmh S 6.9 mph11.1 kmh 29.98 in1015.2 mb - 0.00 in0.0 mm 0.04 in1.0 mm
05:50 PM 38.0°F3.3°C 35.0°F1.7°C 89% 5.8 mph S9.3 kmh S 9.2 mph14.8 kmh 29.98 in1015.2 mb - 0.00 in0.0 mm 0.04 in1.0 mm
06:00 PM 38.0°F3.3°C 35.0°F1.7°C 89% 5.8 mph S9.3 kmh S 11.5 mph18.5 kmh 29.99 in1015.6 mb - 0.00 in0.0 mm 0.04 in1.0 mm
06:10 PM 37.8°F3.2°C 34.9°F1.6°C 89% 3.5 mph S5.6 kmh S 8.1 mph13.0 kmh 29.99 in1015.6 mb - 0.00 in0.0 mm 0.04 in1.0 mm
06:20 PM 37.7°F3.2°C 35.0°F1.7°C 90% 4.6 mph S7.4 kmh S 10.4 mph16.7 kmh 29.99 in1015.6 mb - 0.00 in0.0 mm 0.04 in1.0 mm
06:30 PM 37.7°F3.2°C 35.0°F1.7°C 90% 5.8 mph S9.3 kmh S 6.9 mph11.1 kmh 29.99 in1015.6 mb - 0.00 in0.0 mm 0.04 in1.0 mm
06:40 PM 37.8°F3.2°C 35.1°F1.7°C 90% 5.8 mph S9.3 kmh S 9.2 mph14.8 kmh 29.98 in1015.2 mb - 0.00 in0.0 mm 0.04 in1.0 mm
06:50 PM 38.0°F3.3°C 35.3°F1.8°C 90% 4.6 mph S7.4 kmh S 8.1 mph13.0 kmh 29.99 in1015.6 mb - 0.00 in0.0 mm 0.04 in1.0 mm
07:00 PM 38.1°F3.4°C 35.4°F1.9°C 90% 5.8 mph S9.3 kmh S 11.5 mph18.5 kmh 29.98 in1015.2 mb - 0.00 in0.0 mm 0.04 in1.0 mm
07:10 PM 38.0°F3.3°C 35.3°F1.8°C 90% 5.8 mph S9.3 kmh S 10.4 mph16.7 kmh 29.98 in1015.2 mb - 0.00 in0.0 mm 0.04 in1.0 mm
07:20 PM 38.0°F3.3°C 35.6°F2.0°C 91% 5.8 mph S9.3 kmh S 8.1 mph13.0 kmh 29.98 in1015.2 mb - 0.00 in0.0 mm 0.04 in1.0 mm
07:30 PM 37.7°F3.2°C 35.1°F1.7°C 90% 6.9 mph S11.1 kmh S 15.0 mph24.1 kmh 29.98 in1015.2 mb - 0.00 in0.0 mm 0.04 in1.0 mm
07:40 PM 37.4°F3.0°C 35.0°F1.7°C 91% 6.9 mph S11.1 kmh S 11.5 mph18.5 kmh 29.98 in1015.2 mb - 0.00 in0.0 mm 0.04 in1.0 mm
07:50 PM 37.0°F2.8°C 34.6°F1.4°C 91% 5.8 mph S9.3 kmh S 16.1 mph25.9 kmh 29.98 in1015.2 mb - 0.00 in0.0 mm 0.04 in1.0 mm
08:00 PM 36.6°F2.6°C 34.3°F1.3°C 91% 6.9 mph S11.1 kmh S 12.7 mph20.4 kmh 29.98 in1015.2 mb - 0.00 in0.0 mm 0.04 in1.0 mm
08:10 PM 36.4°F2.4°C 34.3°F1.3°C 92% 4.6 mph S7.4 kmh S 11.5 mph18.5 kmh 29.99 in1015.6 mb - 0.00 in0.0 mm 0.04 in1.0 mm
08:20 PM 36.4°F2.4°C 34.3°F1.3°C 92% 6.9 mph S11.1 kmh S 10.4 mph16.7 kmh 29.98 in1015.2 mb - 0.00 in0.0 mm 0.04 in1.0 mm
08:30 PM 36.1°F2.3°C 34.0°F1.1°C 92% 5.8 mph S9.3 kmh S 12.7 mph20.4 kmh 29.99 in1015.6 mb - 0.00 in0.0 mm 0.04 in1.0 mm
08:40 PM 36.1°F2.3°C 34.0°F1.1°C 92% 4.6 mph S7.4 kmh S 8.1 mph13.0 kmh 29.98 in1015.2 mb - 0.00 in0.0 mm 0.04 in1.0 mm
08:50 PM 36.0°F2.2°C 33.9°F1.1°C 92% 6.9 mph S11.1 kmh S 12.7 mph20.4 kmh 29.98 in1015.2 mb - 0.00 in0.0 mm 0.04 in1.0 mm
09:00 PM 36.1°F2.3°C 34.0°F1.1°C 92% 6.9 mph S11.1 kmh S 10.4 mph16.7 kmh 29.98 in1015.2 mb - 0.00 in0.0 mm 0.04 in1.0 mm
09:10 PM 36.3°F2.4°C 34.2°F1.2°C 92% 8.1 mph S13.0 kmh S 13.8 mph22.2 kmh 29.98 in1015.2 mb - 0.00 in0.0 mm 0.04 in1.0 mm
09:20 PM 36.3°F2.4°C 34.2°F1.2°C 92% 5.8 mph SSW9.3 kmh SSW 9.2 mph14.8 kmh 29.99 in1015.6 mb - 0.00 in0.0 mm 0.04 in1.0 mm
09:30 PM 36.2°F2.3°C 34.1°F1.2°C 92% 5.8 mph S9.3 kmh S 8.1 mph13.0 kmh 29.98 in1015.2 mb - 0.00 in0.0 mm 0.04 in1.0 mm
09:40 PM 36.2°F2.3°C 34.1°F1.2°C 92% 2.3 mph SSW3.7 kmh SSW 5.8 mph9.3 kmh 29.98 in1015.2 mb - 0.00 in0.0 mm 0.04 in1.0 mm
09:50 PM 36.2°F2.3°C 34.1°F1.2°C 92% 4.6 mph SSW7.4 kmh SSW 5.8 mph9.3 kmh 29.98 in1015.2 mb - 0.00 in0.0 mm 0.04 in1.0 mm
10:00 PM 36.4°F2.4°C 34.6°F1.4°C 93% 4.6 mph S7.4 kmh S 6.9 mph11.1 kmh 29.97 in1014.9 mb - 0.00 in0.0 mm 0.04 in1.0 mm
10:10 PM 36.6°F2.6°C 34.8°F1.6°C 93% 4.6 mph S7.4 kmh S 5.8 mph9.3 kmh 29.97 in1014.9 mb - 0.00 in0.0 mm 0.04 in1.0 mm
10:20 PM 36.8°F2.7°C 35.0°F1.7°C 93% 3.5 mph S5.6 kmh S 4.6 mph7.4 kmh 29.96 in1014.6 mb - 0.00 in0.0 mm 0.04 in1.0 mm
10:30 PM 37.0°F2.8°C 35.2°F1.8°C 93% 4.6 mph S7.4 kmh S 6.9 mph11.1 kmh 29.96 in1014.6 mb - 0.00 in0.0 mm 0.04 in1.0 mm
10:40 PM 37.3°F2.9°C 35.5°F1.9°C 93% 5.8 mph S9.3 kmh S 10.4 mph16.7 kmh 29.95 in1014.2 mb - 0.00 in0.0 mm 0.04 in1.0 mm
10:50 PM 37.7°F3.2°C 35.9°F2.2°C 93% 4.6 mph S7.4 kmh S 5.8 mph9.3 kmh 29.95 in1014.2 mb - 0.00 in0.0 mm 0.04 in1.0 mm
11:00 PM 38.1°F3.4°C 36.3°F2.4°C 93% 4.6 mph S7.4 kmh S 8.1 mph13.0 kmh 29.95 in1014.2 mb - 0.00 in0.0 mm 0.04 in1.0 mm
11:10 PM 38.5°F3.6°C 36.6°F2.6°C 93% 5.8 mph S9.3 kmh S 6.9 mph11.1 kmh 29.95 in1014.2 mb - 0.00 in0.0 mm 0.04 in1.0 mm
11:20 PM 38.6°F3.7°C 36.8°F2.7°C 93% 3.5 mph S5.6 kmh S 5.8 mph9.3 kmh 29.94 in1013.9 mb - 0.00 in0.0 mm 0.04 in1.0 mm
11:30 PM 38.7°F3.7°C 36.9°F2.7°C 93% 5.8 mph S9.3 kmh S 10.4 mph16.7 kmh 29.94 in1013.9 mb - 0.00 in0.0 mm 0.04 in1.0 mm
11:40 PM 38.8°F3.8°C 36.9°F2.7°C 93% 6.9 mph S11.1 kmh S 10.4 mph16.7 kmh 29.93 in1013.5 mb - 0.00 in0.0 mm 0.04 in1.0 mm
11:50 PM 38.7°F3.7°C 36.9°F2.7°C 93% 6.9 mph S11.1 kmh S 11.5 mph18.5 kmh 29.93 in1013.5 mb - 0.00 in0.0 mm 0.04 in1.0 mm